createdAt,value
2023-03-26T00:01:39.452Z,17.00
2023-03-26T00:04:48.867Z,17.75
2023-03-26T00:07:55.317Z,25.75
2023-03-26T00:11:01.003Z,20.75
2023-03-26T00:14:09.955Z,11.75
2023-03-26T00:17:17.280Z,16.75
2023-03-26T00:20:23.897Z,13.25
2023-03-26T00:23:31.104Z,20.50
2023-03-26T00:26:37.757Z,15.50
2023-03-26T00:29:44.964Z,43.00
2023-03-26T00:32:53.615Z,20.00
2023-03-26T00:36:03.894Z,23.25
2023-03-26T00:39:10.310Z,21.50
2023-03-26T00:42:16.088Z,18.25
2023-03-26T00:45:23.027Z,36.25
2023-03-26T00:48:44.645Z,37.75
2023-03-26T00:51:50.462Z,19.75
2023-03-26T00:54:57.578Z,17.00
2023-03-26T00:58:01.549Z,26.50
2023-03-26T01:01:09.202Z,29.25
2023-03-26T01:04:31.308Z,18.75
2023-03-26T01:07:37.135Z,27.25
2023-03-26T01:10:45.388Z,22.00
2023-03-26T01:13:52.934Z,38.75
2023-03-26T01:17:02.184Z,16.00
2023-03-26T01:20:15.504Z,14.75
2023-03-26T01:23:26.332Z,39.50
2023-03-26T01:27:11.428Z,19.75
2023-03-26T01:30:22.932Z,12.75
2023-03-26T01:33:37.944Z,47.00
2023-03-26T01:36:51.295Z,25.75
2023-03-26T01:40:07.428Z,36.75
2023-03-26T01:43:29.745Z,36.75
2023-03-26T01:46:37.080Z,26.50
2023-03-26T01:49:42.515Z,26.25
2023-03-26T01:53:14.469Z,40.50
2023-03-26T01:56:29.580Z,41.25
2023-03-26T02:00:08.402Z,38.75
2023-03-26T02:03:28.027Z,37.25
2023-03-26T02:06:40.720Z,15.25
2023-03-26T02:09:50.420Z,17.00
2023-03-26T02:12:57.893Z,16.25
2023-03-26T02:16:12.333Z,15.25
2023-03-26T02:19:21.785Z,25.00
2023-03-26T02:22:31.804Z,20.50
2023-03-26T02:25:40.230Z,19.75
2023-03-26T02:28:44.958Z,17.25
2023-03-26T02:31:51.913Z,17.00
2023-03-26T02:34:59.085Z,17.75
2023-03-26T02:38:04.221Z,12.00
2023-03-26T02:41:11.165Z,14.00
2023-03-26T02:44:33.317Z,11.00
2023-03-26T02:47:39.963Z,10.75
2023-03-26T02:51:08.164Z,14.50
2023-03-26T02:54:46.137Z,15.75
2023-03-26T02:58:02.165Z,14.00
2023-03-26T03:01:26.157Z,13.00
2023-03-26T03:04:44.610Z,5.00
2023-03-26T03:07:50.292Z,10.75
2023-03-26T03:11:11.671Z,10.00
2023-03-26T03:14:22.105Z,14.00
2023-03-26T03:17:27.425Z,11.00
2023-03-26T03:20:35.351Z,30.00
2023-03-26T03:23:39.679Z,48.00
2023-03-26T03:26:50.447Z,48.75
2023-03-26T03:30:14.996Z,39.75
2023-03-26T03:33:38.400Z,22.25
2023-03-26T03:36:48.852Z,23.00
2023-03-26T03:40:11.146Z,24.75
2023-03-26T03:43:17.980Z,24.25
2023-03-26T03:46:40.586Z,7.00
2023-03-26T03:49:49.221Z,29.75
2023-03-26T03:52:55.973Z,25.75
2023-03-26T03:56:02.160Z,9.25
2023-03-26T03:59:47.992Z,6.25
2023-03-26T04:02:56.891Z,10.75
2023-03-26T04:06:11.300Z,7.00
2023-03-26T04:09:25.189Z,19.75
2023-03-26T04:12:34.878Z,10.50
2023-03-26T04:15:42.175Z,10.25
2023-03-26T04:18:47.346Z,10.00
2023-03-26T04:22:05.383Z,8.50
2023-03-26T04:25:17.908Z,9.00
2023-03-26T04:28:33.130Z,14.50
2023-03-26T04:31:52.314Z,40.00
2023-03-26T04:35:05.601Z,14.50
2023-03-26T04:38:17.468Z,11.25
2023-03-26T04:41:33.896Z,12.75
2023-03-26T04:44:43.095Z,6.50
2023-03-26T04:47:54.476Z,9.50
2023-03-26T04:51:00.563Z,7.00
2023-03-26T04:54:20.546Z,69.75
2023-03-26T04:57:54.846Z,75.25
2023-03-26T05:02:24.130Z,45.25
2023-03-26T05:06:34.764Z,11.00
2023-03-26T05:09:52.060Z,52.00
2023-03-26T05:16:57.693Z,15.00
2023-03-26T05:20:30.427Z,11.50
2023-03-26T05:23:42.685Z,13.25
2023-03-26T05:27:04.201Z,9.00
2023-03-26T05:30:17.957Z,9.25
2023-03-26T05:33:27.519Z,11.75
2023-03-26T05:36:46.180Z,14.25
2023-03-26T05:40:20.915Z,19.50
2023-03-26T05:43:32.988Z,21.25
2023-03-26T05:46:53.088Z,48.50
2023-03-26T05:50:20.168Z,16.25
2023-03-26T05:53:28.111Z,18.50
2023-03-26T05:56:51.471Z,21.25
2023-03-26T06:00:16.502Z,37.00
2023-03-26T06:03:25.815Z,20.00
2023-03-26T06:06:46.987Z,24.75
2023-03-26T06:09:56.905Z,28.00
2023-03-26T06:13:03.819Z,30.75
2023-03-26T06:16:27.034Z,16.00
2023-03-26T06:19:59.438Z,19.75
2023-03-26T06:23:12.859Z,28.00
2023-03-26T06:26:42.453Z,27.50
2023-03-26T06:29:59.686Z,33.00
2023-03-26T06:33:26.131Z,30.50
2023-03-26T06:37:12.559Z,29.50
2023-03-26T06:40:53.073Z,39.75
2023-03-26T06:44:28.730Z,42.00
2023-03-26T06:47:52.701Z,43.75
2023-03-26T06:51:21.980Z,45.00
2023-03-26T06:54:46.242Z,44.75
2023-03-26T06:58:21.211Z,46.50
2023-03-26T07:01:49.412Z,46.00
2023-03-26T07:05:14.472Z,42.75
2023-03-26T07:08:38.120Z,47.50
2023-03-26T07:12:14.776Z,48.75
2023-03-26T07:15:46.149Z,28.00
2023-03-26T07:19:02.893Z,43.75
2023-03-26T07:22:18.641Z,43.75
2023-03-26T07:25:42.406Z,42.00
2023-03-26T07:29:31.776Z,40.50
2023-03-26T07:33:18.926Z,40.75
2023-03-26T07:37:16.063Z,38.25
2023-03-26T07:41:16.026Z,41.00
2023-03-26T07:45:02.088Z,134.67
2023-03-26T07:48:32.281Z,35.50
2023-03-26T07:52:03.161Z,39.50
2023-03-26T07:55:55.961Z,24.33
2023-03-26T07:59:31.574Z,23.75
2023-03-26T08:03:27.076Z,31.75
2023-03-26T08:06:38.532Z,38.50
2023-03-26T08:10:20.013Z,9.33
2023-03-26T08:13:41.516Z,3.00
2023-03-26T08:16:55.311Z,7.33
2023-03-26T08:20:28.758Z,12.33
2023-03-26T08:23:52.953Z,7.00
2023-03-26T08:27:17.361Z,9.00
2023-03-26T08:30:50.847Z,5.00
2023-03-26T08:34:02.568Z,29.00
2023-03-26T08:37:10.405Z,7.33
2023-03-26T08:40:42.989Z,3.00
2023-03-26T08:44:21.565Z,3.00
2023-03-26T08:52:54.440Z,10.50
2023-03-26T08:56:09.050Z,7.50
2023-03-26T09:00:06.591Z,0.00
2023-03-26T09:03:50.064Z,1.00
2023-03-26T09:07:34.436Z,13.50
2023-03-26T09:10:53.095Z,8.00
2023-03-26T09:14:43.282Z,26.75
2023-03-26T09:18:34.750Z,34.00
2023-03-26T09:22:38.436Z,0.67
2023-03-26T09:26:04.495Z,10.00
2023-03-26T09:29:54.632Z,3.00
2023-03-26T09:33:47.457Z,4.33
2023-03-26T09:37:05.953Z,5.00
2023-03-26T09:40:22.727Z,1.00
2023-03-26T09:44:21.861Z,1.00
2023-03-26T09:48:16.082Z,0.00
2023-03-26T09:51:48.706Z,1.00
2023-03-26T09:55:09.412Z,2.00
2023-03-26T09:58:41.034Z,0.00
2023-03-26T10:02:07.229Z,1.00
2023-03-26T10:05:48.094Z,0.67
2023-03-26T10:09:50.766Z,6.00
2023-03-26T10:13:23.067Z,53.25
2023-03-26T10:16:46.583Z,13.25
2023-03-26T10:20:09.855Z,13.00
2023-03-26T10:23:31.997Z,7.00
2023-03-26T10:27:09.385Z,5.00
2023-03-26T10:30:30.812Z,7.00
2023-03-26T10:33:49.990Z,1.00
2023-03-26T10:36:59.871Z,6.00
2023-03-26T10:40:19.818Z,2.00
2023-03-26T10:44:07.450Z,12.00
2023-03-26T10:48:13.916Z,17.75
2023-03-26T10:51:53.575Z,6.00
2023-03-26T10:55:12.197Z,0.67
2023-03-26T10:58:26.619Z,4.67
2023-03-26T11:01:41.816Z,6.00
2023-03-26T11:05:02.179Z,0.00
2023-03-26T11:08:19.103Z,1.33
2023-03-26T11:12:26.553Z,0.33
2023-03-26T11:15:50.288Z,4.00
2023-03-26T11:19:21.390Z,2.00
2023-03-26T11:22:43.118Z,0.00
2023-03-26T11:26:11.483Z,0.00
2023-03-26T11:29:40.477Z,2.00
2023-03-26T11:32:59.067Z,1.33
2023-03-26T11:41:06.388Z,14.75
2023-03-26T11:45:17.864Z,2.00
2023-03-26T11:48:34.344Z,3.33
2023-03-26T11:51:52.349Z,2.00
2023-03-26T11:55:15.161Z,4.33
2023-03-26T11:58:31.441Z,2.00
2023-03-26T12:01:56.634Z,0.00
2023-03-26T12:05:24.894Z,1.00
2023-03-26T12:08:38.485Z,1.00
2023-03-26T12:15:46.796Z,3.00
2023-03-26T12:19:17.000Z,8.33
2023-03-26T12:23:41.701Z,0.00
2023-03-26T12:26:57.024Z,0.00
2023-03-26T12:30:31.038Z,1.33
2023-03-26T12:33:45.352Z,0.00
2023-03-26T12:37:00.329Z,50.25
2023-03-26T12:40:29.492Z,2.00
2023-03-26T12:44:50.661Z,1.00
2023-03-26T12:47:58.100Z,2.00
2023-03-26T12:51:02.168Z,0.00
2023-03-26T12:54:23.872Z,0.00
2023-03-26T12:57:40.725Z,2.67
2023-03-26T13:00:59.684Z,0.00
2023-03-26T13:04:35.617Z,3.67
2023-03-26T13:07:58.077Z,0.00
2023-03-26T13:11:13.115Z,0.00
2023-03-26T13:15:00.236Z,1.00
2023-03-26T13:18:37.395Z,0.00
2023-03-26T13:22:01.583Z,0.00
2023-03-26T13:25:29.063Z,0.00
2023-03-26T13:28:54.794Z,1.00
2023-03-26T13:36:19.320Z,0.00
2023-03-26T13:39:40.499Z,6.00
2023-03-26T13:43:14.269Z,0.00
2023-03-26T13:46:49.919Z,0.00
2023-03-26T13:50:10.214Z,8.25
2023-03-26T13:53:50.646Z,0.00
2023-03-26T13:58:14.206Z,2.00
2023-03-26T14:01:48.134Z,0.00
2023-03-26T14:04:58.554Z,0.00
2023-03-26T14:08:13.482Z,0.33
2023-03-26T14:11:24.573Z,1.00
2023-03-26T14:14:49.560Z,1.00
2023-03-26T14:18:13.121Z,0.00
2023-03-26T14:21:55.368Z,7.33
2023-03-26T14:25:27.801Z,13.67
2023-03-26T14:30:02.211Z,1.00
2023-03-26T14:33:50.160Z,2.00
2023-03-26T14:37:29.661Z,2.00
2023-03-26T14:40:59.978Z,0.33
2023-03-26T14:45:10.142Z,10.00
2023-03-26T14:48:51.169Z,3.00
2023-03-26T14:52:18.066Z,4.00
2023-03-26T14:56:20.480Z,1.00
2023-03-26T15:00:50.700Z,3.00
2023-03-26T15:04:51.784Z,3.00
2023-03-26T15:08:40.694Z,1.00
2023-03-26T15:12:12.960Z,3.00
2023-03-26T15:15:54.293Z,11.00
2023-03-26T15:19:46.105Z,3.00
2023-03-26T15:23:30.867Z,3.67
2023-03-26T15:27:39.734Z,2.00
2023-03-26T15:31:40.851Z,4.00
2023-03-26T15:35:34.024Z,4.00
2023-03-26T15:39:15.039Z,2.00
2023-03-26T15:42:33.032Z,2.67
2023-03-26T15:45:41.250Z,2.67
2023-03-26T15:48:58.123Z,2.00
2023-03-26T15:52:21.772Z,3.00
2023-03-26T15:55:36.853Z,12.00
2023-03-26T15:59:00.551Z,10.00
2023-03-26T16:02:27.432Z,5.00
2023-03-26T16:05:45.366Z,6.25
2023-03-26T16:09:05.369Z,7.50
2023-03-26T16:12:32.284Z,7.25
2023-03-26T16:15:41.196Z,3.00
2023-03-26T16:19:16.401Z,5.75
2023-03-26T16:22:46.576Z,6.00
2023-03-26T16:26:11.060Z,23.75
2023-03-26T16:29:25.928Z,7.00
2023-03-26T16:32:36.960Z,4.00
2023-03-26T16:36:50.604Z,9.25
2023-03-26T16:41:14.552Z,6.00
2023-03-26T16:45:16.385Z,6.75
2023-03-26T16:49:25.033Z,15.25
2023-03-26T16:53:03.716Z,15.25
2023-03-26T16:56:17.935Z,34.00
2023-03-26T16:59:40.370Z,46.50
2023-03-26T17:03:00.002Z,29.75
2023-03-26T17:06:44.147Z,21.75
2023-03-26T17:10:17.798Z,12.00
2023-03-26T17:13:32.331Z,15.75
2023-03-26T17:16:49.739Z,6.50
2023-03-26T17:20:35.655Z,16.00
2023-03-26T17:24:33.788Z,13.75
2023-03-26T17:28:50.031Z,6.75
2023-03-26T17:32:49.521Z,23.50
2023-03-26T17:41:11.310Z,17.75
2023-03-26T17:45:22.796Z,33.25
2023-03-26T17:49:37.923Z,20.75
2023-03-26T17:53:40.193Z,10.00
2023-03-26T17:57:56.638Z,34.00
2023-03-26T18:01:28.999Z,26.00
2023-03-26T18:04:39.096Z,10.00
2023-03-26T18:08:12.576Z,12.50
2023-03-26T18:11:45.762Z,3.75
2023-03-26T18:15:13.565Z,14.50
2023-03-26T18:18:22.866Z,26.00
2023-03-26T18:21:36.170Z,44.50
2023-03-26T18:24:43.623Z,42.50
2023-03-26T18:31:39.606Z,51.25
2023-03-26T18:35:27.849Z,57.75
2023-03-26T18:39:42.541Z,56.25
2023-03-26T18:43:03.051Z,78.75
2023-03-26T18:46:34.531Z,127.33
2023-03-26T18:54:10.582Z,27.50
2023-03-26T18:57:23.460Z,43.75
2023-03-26T19:00:53.415Z,58.25
2023-03-26T19:04:32.601Z,40.50
2023-03-26T19:08:30.448Z,50.75
2023-03-26T19:12:11.819Z,63.00
2023-03-26T19:16:06.516Z,49.75
2023-03-26T19:20:02.914Z,56.75
2023-03-26T19:28:00.512Z,38.75
2023-03-26T19:33:13.566Z,59.50
2023-03-26T19:50:42.414Z,33.50
2023-03-26T19:54:59.007Z,86.75
2023-03-26T20:02:56.748Z,49.75
2023-03-26T20:07:15.145Z,58.00
2023-03-26T20:11:07.328Z,59.75
2023-03-26T20:15:05.653Z,55.00
2023-03-26T20:28:02.670Z,57.00
2023-03-26T20:31:52.121Z,49.25
2023-03-26T20:40:48.363Z,39.50
2023-03-26T20:45:10.829Z,28.25
2023-03-26T20:50:22.781Z,47.25
2023-03-26T20:54:02.903Z,39.25
2023-03-26T20:57:56.913Z,54.00
2023-03-26T21:01:12.248Z,29.00
2023-03-26T21:05:09.550Z,50.50
2023-03-26T21:08:54.485Z,43.25
2023-03-26T21:12:50.170Z,52.00
2023-03-26T21:16:46.682Z,30.50
2023-03-26T21:20:47.886Z,48.00
2023-03-26T21:25:09.146Z,25.50
2023-03-26T21:33:26.097Z,19.75
2023-03-26T21:37:21.586Z,26.75
2023-03-26T21:41:13.196Z,36.25
2023-03-26T21:45:53.958Z,40.25
2023-03-26T21:49:35.097Z,44.50
2023-03-26T21:53:58.035Z,41.00
2023-03-26T22:06:32.449Z,59.75
2023-03-26T22:10:23.352Z,44.00
2023-03-26T22:13:44.883Z,81.67
2023-03-26T22:17:22.084Z,53.75
2023-03-26T22:21:41.934Z,32.50
2023-03-26T22:25:36.169Z,38.75
2023-03-26T22:29:44.744Z,36.00
2023-03-26T22:33:45.071Z,37.25
2023-03-26T22:37:32.886Z,56.50
2023-03-26T22:41:51.452Z,50.25
2023-03-26T22:45:32.793Z,35.00
2023-03-26T22:50:00.359Z,38.75
2023-03-26T22:53:56.945Z,39.50
2023-03-26T22:58:19.438Z,29.25
2023-03-26T23:02:38.361Z,28.50
2023-03-26T23:06:52.175Z,48.25
2023-03-26T23:11:18.665Z,36.50
2023-03-26T23:14:45.419Z,38.00
2023-03-26T23:18:47.900Z,41.25
2023-03-26T23:22:38.794Z,44.75
2023-03-26T23:26:07.330Z,45.75
2023-03-26T23:29:29.431Z,24.50
2023-03-26T23:33:22.668Z,33.50
2023-03-26T23:37:16.978Z,46.25
2023-03-26T23:41:23.979Z,38.25
2023-03-26T23:45:00.054Z,28.75
2023-03-26T23:48:34.229Z,23.50
2023-03-26T23:57:52.986Z,24.00
